Main page
METAR-TAF:

METAR-TAF

Airports :

Ostend, Belgium

Ostend–Bruges International Airport

latitude: 51-12N, longitude: 002-52E, elevation: 4 m

Current weather observation

The report was made 26 minutes ago, at 08:50 UTC
Wind 11 kt from the Southwest
Temperature 12°C
Humidity 82%
Pressure 1025 hPa
Visibility 10 km or more
Broken clouds at a height of 1700 ft

METAR: EBOS 290850Z 22011KT 9999 BKN017 12/09 Q1025 NOSIG

Time: 11:16 (09:16 UTC)

Forecast

The report was made 4 hours and 6 minutes ago, at 05:10 UTC
Forecast valid from 29 at 06 UTC to 30 at 12 UTC
Wind 14 kt from the Southwest
Visibility 10 km or more
Scattered clouds at a height of 2000 ft
Probability 30% :
Temporary
from 29 at 06 UTC to 29 at 09 UTC
Broken clouds at a height of 1400 ft

TAF: EBOS 290510Z 2906/3012 22014KT 9999 SCT020 PROB30 TEMPO 2906/2909 BKN014

Weather observations and forecasts of more than 4000 airports (METAR and TAF reports).

The available stations are represented by yellow and red dots on the map.

Hover mouse over dot to see the name of the station.

Then click to see weather observations and forecasts.

To change the map : click on the green buttons with a black cross to zoom in, on the green button with a dash to zoom out, or on the green arrows for adjacent maps.


METAR-TAF: